Nearby METAR Reports

 

KPLU - Puyallup/Thun, Washington, USA
Distance from station: SSW 10mi, 16km
Updated: Thu, 18-Aug-2022 5:35am PDT
Mostly cloudy
Mostly cloudy
 Wind from calm
Wind: Calm
Temperature: 70°F , 21°C
Dew Point: 64°F , 18°C
Humidity: 83%
Barometer: 29.93 inHg , 1013.5 hPa
Clouds: Mostly cloudy
Visibility: 10 miles , 16 km
Cloud details: Mostly cloudy 6000 ft
2022/08/18 12:35 KPLU 181235Z AUTO 00000KT 10SM BKN060 21/18 A2993 RMK AO2
KTCM - Tacoma/Mc Chord, Washington, USA
Distance from station: SW 15mi, 24km
Updated: Thu, 18-Aug-2022 4:58am PDT
Overcast
Overcast
 Wind from calm
Wind: Calm
Temperature: 68°F , 20°C
Dew Point: 61°F , 16°C
Humidity: 78%
Barometer: 29.90 inHg , 1012.5 hPa
Clouds: Overcast
Visibility: 10 miles , 16 km
Cloud details: Few Clouds 17000 ft
Overcast 20000 ft
2022/08/18 11:58 KTCM 181158Z AUTO 00000KT 10SM FEW170 OVC200 20/16 A2990 RMK AO2 SLP127 T02010157 10233 20194 50001 $
 
KSEA - Seattle/Metro, Washington, USA
Distance from station: NNW 16mi, 25km
Updated: Thu, 18-Aug-2022 4:53am PDT
Mostly cloudy
Mostly cloudy
 Wind from N
Wind: N 8 mph , 13 km/h
Temperature: 72°F , 22°C
Dew Point: 57°F , 14°C
Humidity: 61%
Barometer: 29.91 inHg , 1012.9 hPa
Clouds: Mostly cloudy
Visibility: 10 miles , 16 km
Cloud details: Mostly cloudy 15000 ft
2022/08/18 11:53 KSEA 181153Z 35007KT 10SM BKN150 22/14 A2991 RMK AO2 SLP131 T02170144 10261 20217 56004
KRNT - Renton, Washington, USA
Distance from station: N 18mi, 29km
Updated: Thu, 18-Aug-2022 4:53am PDT
Clear
Clear
 Wind from NNW
Wind: NNW 3 mph , 6 km/h
Temperature: 73°F , 23°C
Dew Point: 63°F , 17°C
Humidity: 69%
Barometer: 29.89 inHg , 1012.2 hPa
Clouds: Clear
Visibility: 10 miles , 16 km
2022/08/18 11:53 KRNT 181153Z 33003KT 10SM CLR 23/17 A2989 RMK AO2 SLP128 T02330172 10256 20217 56003
 
KTIW - Tacoma, Washington, USA
Distance from station: W 18mi, 29km
Updated: Thu, 18-Aug-2022 4:53am PDT
Clear
Clear
 Wind from calm
Wind: Calm
Temperature: 70°F , 21°C
Dew Point: 57°F , 14°C
Humidity: 64%
Barometer: 29.91 inHg , 1012.9 hPa
Clouds: Clear
Visibility: 10 miles , 16 km
2022/08/18 11:53 KTIW 181153Z AUTO 00000KT 10SM CLR 21/14 A2991 RMK AO2 SLP122 T02110144 10250 20211 57002
KGRF - Fort Lewis/Gray, Washington, USA
Distance from station: SW 21mi, 33km
Updated: Thu, 18-Aug-2022 4:58am PDT
Mostly cloudy
Mostly cloudy
 Wind from calm
Wind: Calm
Temperature: 70°F , 21°C
Dew Point: 57°F , 14°C
Humidity: 64%
Barometer: 29.89 inHg , 1012.2 hPa
Clouds: Mostly cloudy
Visibility: 10 miles , 16 km
Cloud details: Mostly cloudy 17000 ft
2022/08/18 11:58 KGRF 181158Z 00000KT 10SM BKN170 21/14 A2989 RMK AO2A SLP123 T02120139 10251 20205 50002 $
 
KBFI - Seattle/Boeing, Washington, USA
Distance from station: NNW 22mi, 36km
Updated: Thu, 18-Aug-2022 4:53am PDT
Clear
Clear
 Wind from NW
Wind: NW 3 mph , 6 km/h
Temperature: 73°F , 23°C
Dew Point: 59°F , 15°C
Humidity: 61%
Barometer: 29.90 inHg , 1012.5 hPa
Clouds: Clear
Visibility: 10 miles , 16 km
2022/08/18 11:53 KBFI 181153Z 32003KT 10SM CLR 23/15 A2990 RMK AO2 SLP126 T02280150 10256 20217 58001
KPWT - Bremerton Ntnl, Washington, USA
Distance from station: NW 31mi, 50km
Updated: Thu, 18-Aug-2022 4:56am PDT
Clear
Clear
 Wind from calm
Wind: Calm
Temperature: 66°F , 19°C
Dew Point: 57°F , 14°C
Humidity: 73%
Barometer: 29.93 inHg , 1013.5 hPa
Clouds: Clear
Visibility: 10 miles , 16 km
2022/08/18 11:56 KPWT 181156Z AUTO 00000KT 10SM CLR 19/14 A2993 RMK AO2 SLP133 6//// 7//// T01940144 10233 20183 50002
 
KOLM - Olympia, Washington, USA
Distance from station: WSW 38mi, 60km
Updated: Thu, 18-Aug-2022 4:54am PDT
Clear
Clear
 Wind from calm
Wind: Calm
Temperature: 66°F , 19°C
Dew Point: 61°F , 16°C
Humidity: 83%
Barometer: 29.91 inHg , 1012.9 hPa
Clouds: Clear
Visibility: 10 miles , 16 km
2022/08/18 11:54 KOLM 181154Z AUTO 00000KT 10SM CLR 19/16 A2991 RMK AO2 SLP127 T01940156 10233 20189 53002
KSMP - Stampede Pass, Washington, USA
Distance from station: E 41mi, 66km
Updated: Thu, 18-Aug-2022 4:56am PDT
Few Clouds
Few Clouds
 Wind from calm
Wind: Calm
Temperature: 77°F , 25°C
Dew Point: 37°F , 3°C
Humidity: 24%
Barometer: 30.14 inHg , 1020.7 hPa
Clouds: Few Clouds
Visibility: 10 miles , 16 km
Cloud details: Few Clouds 12000 ft
2022/08/18 11:56 KSMP 181156Z AUTO 00000KT 10SM FEW120 25/03 A3014 RMK AO2 SLP158 T02500033 10256 20233 58002
 
KSHN - Shelton, Washington, USA
Distance from station: W 43mi, 70km
Updated: Thu, 18-Aug-2022 4:53am PDT
Clear
Clear
 Wind from calm
Wind: Calm
Temperature: 64°F , 18°C
Dew Point: 61°F , 16°C
Humidity: 88%
Barometer: 29.90 inHg , 1012.5 hPa
Clouds: Clear
Visibility: 10 miles , 16 km
2022/08/18 11:53 KSHN 181153Z AUTO 00000KT 10SM CLR 18/16 A2990 RMK AO2 SLP122 T01830156 10222 20178 53003
KPAE - Everett, Washington, USA
Distance from station: N 47mi, 76km
Updated: Thu, 18-Aug-2022 4:53am PDT
Clear
Clear
 Wind from calm
Wind: Calm
Temperature: 73°F , 23°C
Dew Point: 57°F , 14°C
Humidity: 57%
Barometer: 29.94 inHg , 1013.9 hPa
Clouds: Clear
Visibility: 10 miles , 16 km
2022/08/18 11:53 KPAE 181153Z AUTO 00000KT 10SM CLR 23/14 A2994 RMK AO2 SLP133 T02330144 10233 20211 58001